createdAt,value
2019-03-01T00:00:20.277Z,0.00
2019-03-01T00:01:20.274Z,0.00
2019-03-01T00:02:20.313Z,0.00
2019-03-01T00:03:20.265Z,0.00
2019-03-01T00:04:20.271Z,0.00
2019-03-01T00:05:20.277Z,0.00
2019-03-01T00:06:20.259Z,0.00
2019-03-01T00:07:20.251Z,0.00
2019-03-01T00:08:20.248Z,0.00
2019-03-01T00:09:20.249Z,0.00
2019-03-01T00:10:20.244Z,0.00
2019-03-01T00:11:20.260Z,0.00
2019-03-01T00:12:20.235Z,0.00
2019-03-01T00:13:20.232Z,0.00
2019-03-01T00:14:20.228Z,0.00
2019-03-01T00:15:20.258Z,0.00
2019-03-01T00:16:20.225Z,0.00
2019-03-01T00:17:20.227Z,0.00
2019-03-01T00:18:20.219Z,0.00
2019-03-01T00:19:20.215Z,0.00
2019-03-01T00:20:20.225Z,0.00
2019-03-01T00:21:20.205Z,0.00
2019-03-01T00:22:20.220Z,0.00
2019-03-01T00:23:20.198Z,0.00
2019-03-01T00:24:20.194Z,0.00
2019-03-01T00:25:20.209Z,0.00
2019-03-01T00:26:20.199Z,0.00
2019-03-01T00:27:20.183Z,0.00
2019-03-01T00:28:20.203Z,0.00
2019-03-01T00:29:20.179Z,0.00
2019-03-01T00:30:20.177Z,0.00
2019-03-01T00:31:20.174Z,0.00
2019-03-01T00:32:20.167Z,0.00
2019-03-01T00:33:20.166Z,0.00
2019-03-01T00:34:20.165Z,0.00
2019-03-01T00:35:20.159Z,0.00
2019-03-01T00:36:20.156Z,0.00
2019-03-01T00:37:20.151Z,0.00
2019-03-01T00:38:20.150Z,0.00
2019-03-01T00:39:20.155Z,0.00
2019-03-01T00:40:20.141Z,0.00
2019-03-01T00:41:20.141Z,0.00
2019-03-01T00:42:20.141Z,0.00
2019-03-01T00:43:20.132Z,0.00
2019-03-01T00:44:20.156Z,0.00
2019-03-01T00:45:20.170Z,0.00
2019-03-01T00:46:20.128Z,0.00
2019-03-01T00:47:20.119Z,0.00
2019-03-01T00:48:20.126Z,0.00
2019-03-01T00:49:20.136Z,0.00
2019-03-01T00:50:20.108Z,0.00
2019-03-01T00:51:20.109Z,0.00
2019-03-01T00:52:20.100Z,0.00
2019-03-01T00:53:20.112Z,0.00
2019-03-01T00:54:20.094Z,0.00
2019-03-01T00:55:20.088Z,0.00
2019-03-01T00:56:20.089Z,0.00
2019-03-01T00:57:20.083Z,0.00
2019-03-01T00:58:20.082Z,0.00
2019-03-01T00:59:20.079Z,0.00
2019-03-01T01:00:20.077Z,0.00
2019-03-01T01:01:20.066Z,0.00
2019-03-01T01:02:20.064Z,0.00
2019-03-01T01:03:20.090Z,0.00
2019-03-01T01:04:20.054Z,0.00
2019-03-01T01:05:20.055Z,0.00
2019-03-01T01:06:20.055Z,0.00
2019-03-01T01:07:20.050Z,0.00
2019-03-01T01:08:20.057Z,0.00
2019-03-01T01:09:20.042Z,0.00
2019-03-01T01:10:20.039Z,0.00
2019-03-01T01:11:20.040Z,0.00
2019-03-01T01:12:20.033Z,0.00
2019-03-01T01:13:20.041Z,0.00
2019-03-01T01:14:20.045Z,0.00
2019-03-01T01:15:20.038Z,0.00
2019-03-01T01:16:20.020Z,0.00
2019-03-01T01:17:20.030Z,0.00
2019-03-01T01:18:20.012Z,0.00
2019-03-01T01:19:20.004Z,0.00
2019-03-01T01:20:20.002Z,0.00
2019-03-01T01:21:19.999Z,0.00
2019-03-01T01:22:19.998Z,0.00
2019-03-01T01:23:20.009Z,0.00
2019-03-01T01:24:19.988Z,0.00
2019-03-01T01:25:20.012Z,0.00
2019-03-01T01:26:19.987Z,0.00
2019-03-01T01:27:19.977Z,0.00
2019-03-01T01:28:19.988Z,0.00
2019-03-01T01:29:19.973Z,0.00
2019-03-01T01:30:19.970Z,0.00
2019-03-01T01:31:19.965Z,0.00
2019-03-01T01:32:19.983Z,0.00
2019-03-01T01:33:19.975Z,0.00
2019-03-01T01:34:19.971Z,0.00
2019-03-01T01:35:19.957Z,0.00
2019-03-01T01:36:19.997Z,0.00
2019-03-01T01:37:19.961Z,0.00
2019-03-01T01:38:19.950Z,0.00
2019-03-01T01:39:19.938Z,0.00
2019-03-01T01:40:19.931Z,0.00
2019-03-01T01:41:19.934Z,0.00
2019-03-01T01:42:19.949Z,0.00
2019-03-01T01:43:19.929Z,0.00
2019-03-01T01:44:19.918Z,0.00
2019-03-01T01:45:19.950Z,0.00
2019-03-01T01:46:19.916Z,0.00
2019-03-01T01:47:20.020Z,0.00
2019-03-01T01:48:19.908Z,0.00
2019-03-01T01:49:19.902Z,0.00
2019-03-01T01:50:19.933Z,0.00
2019-03-01T01:51:19.905Z,0.00
2019-03-01T01:52:19.890Z,0.00
2019-03-01T01:53:19.906Z,0.00
2019-03-01T01:54:19.923Z,0.00
2019-03-01T01:55:19.879Z,0.00
2019-03-01T01:56:19.891Z,0.00
2019-03-01T01:57:19.886Z,0.00
2019-03-01T01:58:19.873Z,0.00
2019-03-01T01:59:19.866Z,0.00
2019-03-01T02:00:19.889Z,0.00
2019-03-01T02:01:19.860Z,0.00
2019-03-01T02:02:19.870Z,0.00
2019-03-01T02:03:21.677Z,0.00
2019-03-01T02:04:19.849Z,0.00
2019-03-01T02:05:19.847Z,0.00
2019-03-01T02:06:19.851Z,0.00
2019-03-01T02:07:19.842Z,0.00
2019-03-01T02:08:19.838Z,0.00
2019-03-01T02:09:19.829Z,0.00
2019-03-01T02:10:19.828Z,0.00
2019-03-01T02:11:19.828Z,0.00
2019-03-01T02:12:19.821Z,0.00
2019-03-01T02:13:19.817Z,0.00
2019-03-01T02:14:19.816Z,0.00
2019-03-01T02:15:19.807Z,0.00
2019-03-01T02:16:19.805Z,0.00
2019-03-01T02:17:19.804Z,0.00
2019-03-01T02:18:19.799Z,0.00
2019-03-01T02:19:19.796Z,0.00
2019-03-01T02:20:19.799Z,0.00
2019-03-01T02:21:19.800Z,0.00
2019-03-01T02:22:19.783Z,0.00
2019-03-01T02:23:19.786Z,0.00
2019-03-01T02:24:19.779Z,0.00
2019-03-01T02:25:19.775Z,0.00
2019-03-01T02:26:19.773Z,0.00
2019-03-01T02:27:19.766Z,0.00
2019-03-01T02:28:19.762Z,0.00
2019-03-01T02:29:19.774Z,0.00
2019-03-01T02:30:19.754Z,0.00
2019-03-01T02:31:19.758Z,0.00
2019-03-01T02:32:19.747Z,0.00
2019-03-01T02:33:19.746Z,0.00
2019-03-01T02:34:19.742Z,0.00
2019-03-01T02:35:19.735Z,0.00
2019-03-01T02:36:19.736Z,0.00
2019-03-01T02:37:19.732Z,0.00
2019-03-01T02:38:19.725Z,0.00
2019-03-01T02:39:19.738Z,0.00
2019-03-01T02:40:19.717Z,0.00
2019-03-01T02:41:19.716Z,0.00
2019-03-01T02:42:19.711Z,0.00
2019-03-01T02:43:19.703Z,0.00
2019-03-01T02:44:19.702Z,0.00
2019-03-01T02:45:19.698Z,0.00
2019-03-01T02:46:19.697Z,0.00
2019-03-01T02:47:19.703Z,0.00
2019-03-01T02:48:19.682Z,0.00
2019-03-01T02:49:19.697Z,0.00
2019-03-01T02:50:19.703Z,0.00
2019-03-01T02:51:19.676Z,0.00
2019-03-01T02:52:19.671Z,0.00
2019-03-01T02:53:19.677Z,0.00
2019-03-01T02:54:19.663Z,0.00
2019-03-01T02:55:19.662Z,0.00
2019-03-01T02:56:19.662Z,0.00
2019-03-01T02:57:19.650Z,0.00
2019-03-01T02:58:19.647Z,0.00
2019-03-01T02:59:19.652Z,0.00
2019-03-01T03:00:19.679Z,0.00
2019-03-01T03:01:19.640Z,0.00
2019-03-01T03:02:19.650Z,0.00
2019-03-01T03:03:19.628Z,0.00
2019-03-01T03:04:19.634Z,0.00
2019-03-01T03:05:19.622Z,0.00
2019-03-01T03:06:19.647Z,0.00
2019-03-01T03:07:19.611Z,0.00
2019-03-01T03:08:19.615Z,0.00
2019-03-01T03:09:19.604Z,0.00
2019-03-01T03:10:19.614Z,0.00
2019-03-01T03:11:19.596Z,0.00
2019-03-01T03:12:19.611Z,0.00
2019-03-01T03:13:19.612Z,0.00
2019-03-01T03:14:19.587Z,0.00
2019-03-01T03:15:19.585Z,0.00
2019-03-01T03:16:19.587Z,0.00
2019-03-01T03:17:19.591Z,0.00
2019-03-01T03:18:19.589Z,0.00
2019-03-01T03:19:19.566Z,0.00
2019-03-01T03:20:19.565Z,0.00
2019-03-01T03:21:19.559Z,0.00
2019-03-01T03:22:19.554Z,0.00
2019-03-01T03:23:19.550Z,0.00
2019-03-01T03:24:19.546Z,0.00
2019-03-01T03:25:19.543Z,0.00
2019-03-01T03:26:19.565Z,0.00
2019-03-01T03:27:19.540Z,0.00
2019-03-01T03:28:19.536Z,0.00
2019-03-01T03:29:19.533Z,0.00
2019-03-01T03:30:19.562Z,0.00
2019-03-01T03:31:19.528Z,0.00
2019-03-01T03:32:19.522Z,0.00
2019-03-01T03:33:19.529Z,0.00
2019-03-01T03:34:19.527Z,0.00
2019-03-01T03:35:19.520Z,0.00
2019-03-01T03:36:19.502Z,0.00
2019-03-01T03:37:19.505Z,0.00
2019-03-01T03:38:19.501Z,0.00
2019-03-01T03:39:19.493Z,0.00
2019-03-01T03:40:19.488Z,0.00
2019-03-01T03:41:19.492Z,0.00
2019-03-01T03:42:19.537Z,0.00
2019-03-01T03:43:19.482Z,0.00
2019-03-01T03:44:19.485Z,0.00
2019-03-01T03:45:19.481Z,0.00
2019-03-01T03:46:19.472Z,0.00
2019-03-01T03:47:19.470Z,0.00
2019-03-01T03:48:19.475Z,0.00
2019-03-01T03:49:19.461Z,0.00
2019-03-01T03:50:19.451Z,0.00
2019-03-01T03:51:19.453Z,0.00
2019-03-01T03:52:19.449Z,0.00
2019-03-01T03:53:19.449Z,0.00
2019-03-01T03:54:19.444Z,0.00
2019-03-01T03:55:19.435Z,0.00
2019-03-01T03:56:19.437Z,0.00
2019-03-01T03:57:19.427Z,0.00
2019-03-01T03:58:19.454Z,0.00
2019-03-01T03:59:19.441Z,0.00
2019-03-01T04:00:19.419Z,0.00
2019-03-01T04:01:19.454Z,0.00
2019-03-01T04:02:19.440Z,0.00
2019-03-01T04:03:19.413Z,0.00
2019-03-01T04:04:19.400Z,0.00
2019-03-01T04:05:19.403Z,0.00
2019-03-01T04:06:19.399Z,0.00
2019-03-01T04:07:19.412Z,0.00
2019-03-01T04:08:19.385Z,0.00
2019-03-01T04:09:19.390Z,0.00
2019-03-01T04:10:19.378Z,0.00
2019-03-01T04:11:19.382Z,0.00
2019-03-01T04:12:19.397Z,0.00
2019-03-01T04:13:19.400Z,0.00
2019-03-01T04:14:19.368Z,0.00
2019-03-01T04:15:19.365Z,0.00
2019-03-01T04:16:19.364Z,0.00
2019-03-01T04:17:19.354Z,0.00
2019-03-01T04:18:19.357Z,0.00
2019-03-01T04:19:19.351Z,0.00
2019-03-01T04:20:19.356Z,0.00
2019-03-01T04:21:19.343Z,0.00
2019-03-01T04:22:19.339Z,0.00
2019-03-01T04:23:19.344Z,0.00
2019-03-01T04:24:19.354Z,0.00
2019-03-01T04:25:19.324Z,0.00
2019-03-01T04:26:19.322Z,0.00
2019-03-01T04:27:19.322Z,0.00
2019-03-01T04:28:19.321Z,0.00
2019-03-01T04:29:19.323Z,0.00
2019-03-01T04:30:19.310Z,0.00
2019-03-01T04:31:19.320Z,0.00
2019-03-01T04:32:19.316Z,0.00
2019-03-01T04:33:19.312Z,0.00
2019-03-01T04:34:19.303Z,0.00
2019-03-01T04:35:19.288Z,0.00
2019-03-01T04:36:19.286Z,0.00
2019-03-01T04:37:19.330Z,0.00
2019-03-01T04:38:19.276Z,0.00
2019-03-01T04:39:19.305Z,0.00
2019-03-01T04:40:19.270Z,0.00
2019-03-01T04:41:19.279Z,0.00
2019-03-01T04:42:19.292Z,0.00
2019-03-01T04:43:19.263Z,0.00
2019-03-01T04:44:19.260Z,0.00
2019-03-01T04:45:19.251Z,0.00
2019-03-01T04:46:19.255Z,0.00
2019-03-01T04:47:19.248Z,0.00
2019-03-01T04:48:19.243Z,0.00
2019-03-01T04:49:19.239Z,0.00
2019-03-01T04:50:19.234Z,0.00
2019-03-01T04:51:19.233Z,0.00
2019-03-01T04:52:19.229Z,0.00
2019-03-01T04:53:19.226Z,0.00
2019-03-01T04:54:19.218Z,0.00
2019-03-01T04:55:19.218Z,0.00
2019-03-01T04:56:19.214Z,0.00
2019-03-01T04:57:19.211Z,0.00
2019-03-01T04:58:19.210Z,0.00
2019-03-01T04:59:19.200Z,0.00
2019-03-01T05:00:19.204Z,0.00
2019-03-01T05:01:19.199Z,0.00
2019-03-01T05:02:19.206Z,0.00
2019-03-01T05:03:19.191Z,0.00
2019-03-01T05:04:19.193Z,0.00
2019-03-01T05:05:19.181Z,0.00
2019-03-01T05:06:19.177Z,0.00
2019-03-01T05:07:19.181Z,0.00
2019-03-01T05:08:19.174Z,0.00
2019-03-01T05:09:19.165Z,0.00
2019-03-01T05:10:19.161Z,0.00
2019-03-01T05:11:19.159Z,0.00
2019-03-01T05:12:19.156Z,0.00
2019-03-01T05:13:19.176Z,0.00
2019-03-01T05:14:19.145Z,0.00
2019-03-01T05:15:19.165Z,0.00
2019-03-01T05:16:19.144Z,0.00
2019-03-01T05:17:19.135Z,0.00
2019-03-01T05:18:19.147Z,0.00
2019-03-01T05:19:19.356Z,0.00
2019-03-01T05:20:19.120Z,0.00
2019-03-01T05:21:19.129Z,0.00
2019-03-01T05:22:19.116Z,0.00
2019-03-01T05:23:19.640Z,0.00
2019-03-01T05:24:19.128Z,0.00
2019-03-01T05:25:19.108Z,0.00
2019-03-01T05:26:19.102Z,0.00
2019-03-01T05:27:19.096Z,0.00
2019-03-01T05:28:19.842Z,0.00
2019-03-01T05:29:20.717Z,0.00
2019-03-01T05:30:19.088Z,0.00
2019-03-01T05:31:19.141Z,0.00
2019-03-01T05:32:19.105Z,0.00
2019-03-01T05:33:21.703Z,0.00
2019-03-01T05:34:19.069Z,0.00
2019-03-01T05:35:19.071Z,0.00
2019-03-01T05:36:19.073Z,0.00
2019-03-01T05:37:19.067Z,0.00
2019-03-01T05:38:21.748Z,0.00
2019-03-01T05:39:19.053Z,0.00
2019-03-01T05:40:19.071Z,0.00
2019-03-01T05:41:19.082Z,0.00
2019-03-01T05:42:19.055Z,0.00
2019-03-01T05:43:19.065Z,0.00
2019-03-01T05:44:19.244Z,4.00
2019-03-01T05:45:19.074Z,4.00
2019-03-01T05:46:19.191Z,0.00
2019-03-01T05:47:19.022Z,4.00
2019-03-01T05:48:19.022Z,4.00
2019-03-01T05:49:19.026Z,4.00
2019-03-01T05:50:19.012Z,4.00
2019-03-01T05:51:19.032Z,8.00
2019-03-01T05:52:19.034Z,8.00
2019-03-01T05:53:19.006Z,12.00
2019-03-01T05:54:19.004Z,12.00
2019-03-01T05:55:19.001Z,16.00
2019-03-01T05:56:19.325Z,16.00
2019-03-01T05:57:18.988Z,20.00
2019-03-01T05:58:18.985Z,20.00
2019-03-01T05:59:18.983Z,24.00
2019-03-01T06:00:18.991Z,28.00
2019-03-01T06:01:19.813Z,32.00
2019-03-01T06:02:18.964Z,32.00
2019-03-01T06:03:18.961Z,40.00
2019-03-01T06:04:18.957Z,48.00
2019-03-01T06:05:18.956Z,56.00
2019-03-01T06:06:18.947Z,60.00
2019-03-01T06:07:18.942Z,64.00
2019-03-01T06:08:18.937Z,72.00
2019-03-01T06:09:18.939Z,76.00
2019-03-01T06:10:18.932Z,72.00
2019-03-01T06:11:18.927Z,84.00
2019-03-01T06:12:18.930Z,100.00
2019-03-01T06:13:18.923Z,104.00
2019-03-01T06:14:18.918Z,120.00
2019-03-01T06:15:18.914Z,112.00
2019-03-01T06:16:18.907Z,76.00
2019-03-01T06:17:18.905Z,68.00
2019-03-01T06:18:18.911Z,72.00
2019-03-01T06:19:18.896Z,72.00
2019-03-01T06:20:18.891Z,80.00
2019-03-01T06:21:18.906Z,72.00
2019-03-01T06:22:18.892Z,60.00
2019-03-01T06:23:18.937Z,52.00
2019-03-01T06:24:18.875Z,48.00
2019-03-01T06:25:18.878Z,52.00
2019-03-01T06:26:18.870Z,56.00
2019-03-01T06:27:18.861Z,56.00
2019-03-01T06:28:21.701Z,60.00
2019-03-01T06:29:18.860Z,64.00
2019-03-01T06:30:18.853Z,76.00
2019-03-01T06:31:18.846Z,88.00
2019-03-01T06:32:18.845Z,116.00
2019-03-01T06:33:18.856Z,132.00
2019-03-01T06:34:18.841Z,152.00
2019-03-01T06:35:18.834Z,164.00
2019-03-01T06:36:19.560Z,140.00
2019-03-01T06:37:18.857Z,124.00
2019-03-01T06:38:18.848Z,116.00
2019-03-01T06:39:18.817Z,108.00
2019-03-01T06:40:18.813Z,116.00
2019-03-01T06:41:18.814Z,124.00
2019-03-01T06:42:18.805Z,124.00
2019-03-01T06:43:18.804Z,124.00
2019-03-01T06:44:18.807Z,132.00
2019-03-01T06:45:18.797Z,144.00
2019-03-01T06:46:18.791Z,144.00
2019-03-01T06:47:18.790Z,148.00
2019-03-01T06:48:18.784Z,160.00
2019-03-01T06:49:18.805Z,136.00
2019-03-01T06:50:18.784Z,128.00
2019-03-01T06:51:28.364Z,132.00
2019-03-01T06:52:18.771Z,136.00
2019-03-01T06:53:18.767Z,116.00
2019-03-01T06:54:18.764Z,120.00
2019-03-01T06:55:18.760Z,112.00
2019-03-01T06:56:18.765Z,112.00
2019-03-01T06:57:18.759Z,128.00
2019-03-01T06:58:18.774Z,132.00
2019-03-01T06:59:18.749Z,136.00
2019-03-01T07:00:18.743Z,136.00
2019-03-01T07:01:18.744Z,152.00
2019-03-01T07:02:18.733Z,164.00
2019-03-01T07:03:18.730Z,152.00
2019-03-01T07:04:18.734Z,168.00
2019-03-01T07:05:18.725Z,180.00
2019-03-01T07:06:18.733Z,184.00
2019-03-01T07:07:18.724Z,220.00
2019-03-01T07:08:18.718Z,236.00
2019-03-01T07:09:18.715Z,224.00
2019-03-01T07:10:18.712Z,200.00
2019-03-01T07:11:18.712Z,164.00
2019-03-01T07:12:18.702Z,136.00
2019-03-01T07:13:18.703Z,116.00
2019-03-01T07:14:18.700Z,104.00
2019-03-01T07:15:18.684Z,96.00
2019-03-01T07:16:18.698Z,100.00
2019-03-01T07:17:18.680Z,104.00
2019-03-01T07:18:18.678Z,104.00
2019-03-01T07:19:18.680Z,104.00
2019-03-01T07:20:18.671Z,104.00
2019-03-01T07:21:18.671Z,112.00
2019-03-01T07:22:18.671Z,112.00
2019-03-01T07:23:18.662Z,112.00
2019-03-01T07:24:18.768Z,120.00
2019-03-01T07:25:18.657Z,124.00
2019-03-01T07:26:18.650Z,140.00
2019-03-01T07:27:18.647Z,160.00
2019-03-01T07:28:18.640Z,164.00
2019-03-01T07:29:18.638Z,168.00
2019-03-01T07:30:18.635Z,156.00
2019-03-01T07:31:18.630Z,148.00
2019-03-01T07:32:18.630Z,144.00
2019-03-01T07:33:18.624Z,132.00
2019-03-01T07:34:18.632Z,136.00
2019-03-01T07:35:18.617Z,132.00
2019-03-01T07:36:18.623Z,140.00
2019-03-01T07:37:18.614Z,160.00
2019-03-01T07:38:18.609Z,196.00
2019-03-01T07:39:18.606Z,232.00
2019-03-01T07:40:18.604Z,260.00
2019-03-01T07:41:18.599Z,312.00
2019-03-01T07:42:18.594Z,360.00
2019-03-01T07:43:18.597Z,412.00
2019-03-01T07:44:18.595Z,448.00
2019-03-01T07:45:18.607Z,440.00
2019-03-01T07:46:18.579Z,432.00
2019-03-01T07:47:18.578Z,408.00
2019-03-01T07:48:18.573Z,364.00
2019-03-01T07:49:18.570Z,344.00
2019-03-01T07:50:18.562Z,332.00
2019-03-01T07:51:18.562Z,344.00
2019-03-01T07:52:18.561Z,344.00
2019-03-01T07:53:18.557Z,352.00
2019-03-01T07:54:18.550Z,360.00
2019-03-01T07:55:18.546Z,372.00
2019-03-01T07:56:18.559Z,404.00
2019-03-01T07:57:18.541Z,456.00
2019-03-01T07:58:21.716Z,504.00
2019-03-01T07:59:18.538Z,572.00
2019-03-01T08:00:18.532Z,664.00
2019-03-01T08:01:18.533Z,912.00
2019-03-01T08:02:18.525Z,1224.00
2019-03-01T08:03:18.524Z,1488.00
2019-03-01T08:04:18.513Z,1756.00
2019-03-01T08:05:18.528Z,1752.00
2019-03-01T08:06:18.508Z,1676.00
2019-03-01T08:07:20.460Z,1548.00
2019-03-01T08:08:18.501Z,1388.00
2019-03-01T08:09:18.499Z,1272.00
2019-03-01T08:10:22.449Z,1116.00
2019-03-01T08:11:18.497Z,952.00
2019-03-01T08:12:18.490Z,848.00
2019-03-01T08:13:18.565Z,808.00
2019-03-01T08:14:18.480Z,788.00
2019-03-01T08:15:18.491Z,784.00
2019-03-01T08:16:20.212Z,828.00
2019-03-01T08:17:18.491Z,880.00
2019-03-01T08:18:18.498Z,924.00
2019-03-01T08:19:22.570Z,944.00
2019-03-01T08:20:18.465Z,952.00
2019-03-01T08:21:18.466Z,964.00
2019-03-01T08:22:20.779Z,964.00
2019-03-01T08:23:18.455Z,996.00
2019-03-01T08:24:18.457Z,1112.00
2019-03-01T08:25:23.372Z,1344.00
2019-03-01T08:26:18.455Z,1640.00
2019-03-01T08:27:18.450Z,2196.00
2019-03-01T08:28:21.834Z,3132.00
2019-03-01T08:29:18.437Z,3796.00
2019-03-01T08:30:18.441Z,4816.00
2019-03-01T08:31:21.080Z,11944.00
2019-03-01T08:32:18.430Z,13404.00
2019-03-01T08:33:18.426Z,9720.00
2019-03-01T08:34:18.666Z,4852.00
2019-03-01T08:35:18.427Z,4836.00
2019-03-01T08:36:18.425Z,5328.00
2019-03-01T08:37:18.484Z,6200.00
2019-03-01T08:38:18.413Z,12436.00
2019-03-01T08:39:18.412Z,7532.00
2019-03-01T08:40:18.413Z,7256.00
2019-03-01T08:41:21.616Z,6368.00
2019-03-01T08:42:18.414Z,6868.00
2019-03-01T08:43:18.765Z,9652.00
2019-03-01T08:44:19.486Z,7120.00
2019-03-01T08:45:18.567Z,5692.00
2019-03-01T08:46:18.486Z,5212.00
2019-03-01T08:47:23.506Z,3756.00
2019-03-01T08:48:18.556Z,3452.00
2019-03-01T08:49:18.800Z,2488.00
2019-03-01T08:50:18.462Z,2216.00
2019-03-01T08:51:18.709Z,2056.00
2019-03-01T08:52:18.589Z,1964.00
2019-03-01T08:53:18.518Z,1944.00
2019-03-01T08:54:19.122Z,1988.00
2019-03-01T08:55:18.563Z,2152.00
2019-03-01T08:56:25.894Z,2456.00
2019-03-01T08:57:18.440Z,2968.00
2019-03-01T08:58:18.651Z,3404.00
2019-03-01T08:59:18.705Z,3848.00
2019-03-01T09:00:18.437Z,4852.00
2019-03-01T09:01:18.413Z,5584.00
2019-03-01T09:02:18.418Z,5032.00
2019-03-01T09:03:22.218Z,4928.00
2019-03-01T09:04:21.388Z,4292.00
2019-03-01T09:05:18.405Z,4492.00
2019-03-01T09:06:18.401Z,4020.00
2019-03-01T09:07:18.408Z,5376.00
2019-03-01T09:08:19.446Z,3940.00
2019-03-01T09:09:20.892Z,4464.00
2019-03-01T09:10:18.403Z,4980.00
2019-03-01T09:11:18.393Z,4188.00
2019-03-01T09:12:18.401Z,3496.00
2019-03-01T09:13:18.393Z,3400.00
2019-03-01T09:14:18.397Z,4312.00
2019-03-01T09:15:18.391Z,23936.00
2019-03-01T09:16:18.391Z,11444.00
2019-03-01T09:17:18.389Z,21216.00
2019-03-01T09:18:18.395Z,15648.00
2019-03-01T09:19:18.393Z,18560.00
2019-03-01T09:20:19.116Z,29152.00
2019-03-01T09:21:18.397Z,11240.00
2019-03-01T09:22:18.402Z,16800.00
2019-03-01T09:23:24.216Z,41088.00
2019-03-01T09:24:18.401Z,27520.00
2019-03-01T09:25:18.406Z,18688.00
2019-03-01T09:26:19.931Z,9848.00
2019-03-01T09:27:18.409Z,7532.00
2019-03-01T09:28:18.411Z,5972.00
2019-03-01T09:29:19.371Z,8672.00
2019-03-01T09:30:18.423Z,3864.00
2019-03-01T09:31:18.426Z,21088.00
2019-03-01T09:32:18.437Z,4356.00
2019-03-01T09:33:21.435Z,3100.00
2019-03-01T09:34:18.448Z,3528.00
2019-03-01T09:35:18.426Z,3736.00
2019-03-01T09:36:21.263Z,3688.00
2019-03-01T09:37:18.442Z,3400.00
2019-03-01T09:38:18.427Z,3508.00
2019-03-01T09:39:19.266Z,3368.00
2019-03-01T09:40:18.431Z,3296.00
2019-03-01T09:41:18.432Z,3116.00
2019-03-01T09:42:18.441Z,3260.00
2019-03-01T09:43:18.430Z,2816.00
2019-03-01T09:44:18.434Z,2924.00
2019-03-01T09:45:19.361Z,2704.00
2019-03-01T09:46:20.933Z,3740.00
2019-03-01T09:47:18.434Z,4244.00
2019-03-01T09:48:18.433Z,3796.00
2019-03-01T09:49:21.343Z,3824.00
2019-03-01T09:50:18.439Z,4592.00
2019-03-01T09:51:18.450Z,5436.00
2019-03-01T09:52:20.399Z,5084.00
2019-03-01T09:53:18.461Z,25344.00
2019-03-01T09:54:18.447Z,24224.00
2019-03-01T09:55:18.435Z,23968.00
2019-03-01T09:56:18.435Z,11936.00
2019-03-01T09:57:18.435Z,11660.00
2019-03-01T09:58:18.438Z,6308.00
2019-03-01T09:59:18.461Z,4772.00
2019-03-01T10:00:18.466Z,3576.00
2019-03-01T10:01:19.234Z,3340.00
2019-03-01T10:02:18.439Z,4076.00
2019-03-01T10:03:18.451Z,5300.00
2019-03-01T10:04:18.442Z,5852.00
2019-03-01T10:05:18.434Z,3812.00
2019-03-01T10:06:18.477Z,3252.00
2019-03-01T10:07:18.435Z,3048.00
2019-03-01T10:08:18.437Z,2948.00
2019-03-01T10:09:18.434Z,2660.00
2019-03-01T10:10:18.439Z,2520.00
2019-03-01T10:11:18.436Z,2524.00
2019-03-01T10:12:18.432Z,2980.00
2019-03-01T10:13:18.446Z,3728.00
2019-03-01T10:14:19.736Z,4476.00
2019-03-01T10:15:18.446Z,5028.00
2019-03-01T10:16:18.439Z,4932.00
2019-03-01T10:17:18.433Z,4028.00
2019-03-01T10:18:18.429Z,3356.00
2019-03-01T10:19:18.439Z,2848.00
2019-03-01T10:20:18.446Z,2892.00
2019-03-01T10:21:18.442Z,2592.00
2019-03-01T10:22:18.461Z,2392.00
2019-03-01T10:23:18.475Z,2548.00
2019-03-01T10:24:18.424Z,2400.00
2019-03-01T10:25:18.443Z,2240.00
2019-03-01T10:26:18.424Z,2116.00
2019-03-01T10:27:18.422Z,2044.00
2019-03-01T10:28:18.428Z,2044.00
2019-03-01T10:29:18.462Z,1756.00
2019-03-01T10:30:18.462Z,1456.00
2019-03-01T10:31:18.420Z,1328.00
2019-03-01T10:32:18.422Z,1272.00
2019-03-01T10:33:18.442Z,1228.00
2019-03-01T10:34:18.443Z,1244.00
2019-03-01T10:35:18.414Z,1328.00
2019-03-01T10:36:18.416Z,1484.00
2019-03-01T10:37:18.422Z,1592.00
2019-03-01T10:38:18.415Z,1592.00
2019-03-01T10:39:18.410Z,1520.00
2019-03-01T10:40:18.423Z,1424.00
2019-03-01T10:41:18.418Z,1332.00
2019-03-01T10:42:18.428Z,1256.00
2019-03-01T10:43:18.410Z,1144.00
2019-03-01T10:44:18.409Z,1076.00
2019-03-01T10:45:18.407Z,1040.00
2019-03-01T10:46:18.408Z,988.00
2019-03-01T10:47:18.405Z,920.00
2019-03-01T10:48:18.400Z,888.00
2019-03-01T10:49:18.454Z,900.00
2019-03-01T10:50:18.395Z,908.00
2019-03-01T10:51:18.397Z,916.00
2019-03-01T10:52:18.393Z,968.00
2019-03-01T10:53:18.392Z,1108.00
2019-03-01T10:54:18.388Z,1248.00
2019-03-01T10:55:18.389Z,1448.00
2019-03-01T10:56:18.426Z,1716.00
2019-03-01T10:57:18.444Z,1704.00
2019-03-01T10:58:18.395Z,1544.00
2019-03-01T10:59:18.410Z,1376.00
2019-03-01T11:00:18.410Z,1220.00
2019-03-01T11:01:18.432Z,1108.00
2019-03-01T11:02:18.375Z,1092.00
2019-03-01T11:03:18.375Z,1128.00
2019-03-01T11:04:18.373Z,1172.00
2019-03-01T11:05:18.376Z,1208.00
2019-03-01T11:06:18.370Z,1280.00
2019-03-01T11:07:18.371Z,1412.00
2019-03-01T11:08:18.390Z,1492.00
2019-03-01T11:09:18.368Z,1424.00
2019-03-01T11:10:18.375Z,1364.00
2019-03-01T11:11:18.364Z,1328.00
2019-03-01T11:12:18.358Z,1276.00
2019-03-01T11:13:18.358Z,1220.00
2019-03-01T11:14:18.354Z,1152.00
2019-03-01T11:15:18.355Z,1112.00
2019-03-01T11:16:18.353Z,1088.00
2019-03-01T11:17:18.359Z,1008.00
2019-03-01T11:18:18.351Z,900.00
2019-03-01T11:19:18.353Z,856.00
2019-03-01T11:20:18.345Z,824.00
2019-03-01T11:21:18.397Z,820.00
2019-03-01T11:22:18.354Z,796.00
2019-03-01T11:23:18.342Z,752.00
2019-03-01T11:24:18.355Z,776.00
2019-03-01T11:25:18.360Z,832.00
2019-03-01T11:26:18.337Z,768.00
2019-03-01T11:27:18.333Z,696.00
2019-03-01T11:28:18.332Z,728.00
2019-03-01T11:29:18.329Z,816.00
2019-03-01T11:30:18.328Z,868.00
2019-03-01T11:31:18.326Z,960.00
2019-03-01T11:32:18.320Z,1052.00
2019-03-01T11:33:18.318Z,1140.00
2019-03-01T11:34:18.340Z,1212.00
2019-03-01T11:35:18.320Z,1352.00
2019-03-01T11:36:18.314Z,1428.00
2019-03-01T11:37:18.316Z,1476.00
2019-03-01T11:38:18.306Z,1576.00
2019-03-01T11:39:18.307Z,1668.00
2019-03-01T11:40:18.315Z,1784.00
2019-03-01T11:41:18.307Z,2040.00
2019-03-01T11:42:18.307Z,2680.00
2019-03-01T11:43:18.305Z,3736.00
2019-03-01T11:44:18.297Z,4460.00
2019-03-01T11:45:18.309Z,5732.00
2019-03-01T11:46:18.291Z,6476.00
2019-03-01T11:47:18.292Z,6408.00
2019-03-01T11:48:18.293Z,5684.00
2019-03-01T11:49:18.297Z,5892.00
2019-03-01T11:50:18.287Z,5076.00
2019-03-01T11:51:18.293Z,5588.00
2019-03-01T11:52:18.283Z,5696.00
2019-03-01T11:53:18.277Z,5076.00
2019-03-01T11:54:18.285Z,4144.00
2019-03-01T11:55:18.280Z,3264.00
2019-03-01T11:56:18.279Z,2936.00
2019-03-01T11:57:18.282Z,2672.00
2019-03-01T11:58:18.281Z,2292.00
2019-03-01T11:59:18.277Z,1940.00
2019-03-01T12:00:18.277Z,2012.00
2019-03-01T12:01:18.275Z,1840.00
2019-03-01T12:02:18.272Z,1764.00
2019-03-01T12:03:18.277Z,1940.00
2019-03-01T12:04:18.289Z,1984.00
2019-03-01T12:05:18.273Z,2060.00
2019-03-01T12:06:18.276Z,2344.00
2019-03-01T12:07:18.268Z,2404.00
2019-03-01T12:08:18.265Z,2524.00
2019-03-01T12:09:18.266Z,2876.00
2019-03-01T12:10:18.269Z,3588.00
2019-03-01T12:11:18.282Z,3608.00
2019-03-01T12:12:18.300Z,3720.00
2019-03-01T12:13:18.283Z,3656.00
2019-03-01T12:14:18.264Z,3268.00
2019-03-01T12:15:18.264Z,3136.00
2019-03-01T12:16:18.306Z,2980.00
2019-03-01T12:17:18.264Z,2692.00
2019-03-01T12:18:18.259Z,2468.00
2019-03-01T12:19:18.259Z,2308.00
2019-03-01T12:20:18.270Z,2072.00
2019-03-01T12:21:18.260Z,2036.00
2019-03-01T12:22:18.258Z,2040.00
2019-03-01T12:23:18.257Z,2140.00
2019-03-01T12:24:18.276Z,2280.00
2019-03-01T12:25:18.258Z,2384.00
2019-03-01T12:26:18.253Z,2428.00
2019-03-01T12:27:18.272Z,2400.00
2019-03-01T12:28:18.273Z,2440.00
2019-03-01T12:29:18.260Z,2456.00
2019-03-01T12:30:18.273Z,2564.00
2019-03-01T12:31:18.258Z,2688.00
2019-03-01T12:32:18.261Z,2788.00
2019-03-01T12:33:18.250Z,2900.00
2019-03-01T12:34:18.245Z,2836.00
2019-03-01T12:35:18.244Z,2660.00
2019-03-01T12:36:18.265Z,2520.00
2019-03-01T12:37:18.246Z,2596.00
2019-03-01T12:38:18.248Z,2888.00
2019-03-01T12:39:18.273Z,3432.00
2019-03-01T12:40:18.246Z,2712.00
2019-03-01T12:41:18.248Z,2756.00
2019-03-01T12:42:18.254Z,2800.00
2019-03-01T12:43:18.296Z,2824.00